Warning: Invalid argument supplied for foreach() in /server/czul.ca/includes/prompts.inc.php on line 9

Warning: Invalid argument supplied for foreach() in /server/czul.ca/includes/prompts.inc.php on line 9

Warning: Invalid argument supplied for foreach() in /server/czul.ca/includes/prompts.inc.php on line 9
CZUL - FIR virtuelle de Montréal

EGLL

London Heathrow Airport

{{ICAO_CODE}} EGLL
{{IATA_CODE}} LHR
{{NAME}} London Heathrow Airport
{{LOCATION}} London, England, GB
{{ELEVATION}} 83 {{FEET}} / 25.3 {{METERS}}
{{LATITUDE}} 51.47060013
{{LONGITUDE}} -0.46194100
{{METAR}} EGLL 232350Z AUTO 26005KT 9999 NCD 14/13 Q1018
{{EXTRA_INFO}} {{DISPLAY_CHARTS_AND_CFS}}
{{DISPLAY_NOTAMS}}
{{RUNWAY}} {{LENGTH}} {{WIDTH}} {{SURFACE}} {{ELEVATION}}
09L 12799 ft 164 ft ASP 79 ft
09R 12001 ft 148 ft ASP 75 ft
27R 12799 ft 164 ft ASP 78 ft
27L 12001 ft 148 ft ASP 77 ft